New River MCAS /H/ /Mccutcheon Fld/ Airport
KNCA : rendu visible

Aérodrome :











RETROUVEZ-NOUS SUR...

 
LOGIN :

S'inscrire | Disclaimer

   EN    FR    IT 

 









Légende :    VFR   VFR Marginal   IFR   IFR Intensif   IFR Très Intensif
Visi : 
Plafond : 
>= 8 km
>= 3000ft
5 à 8 km
1000 à 3000 ft
1500m à 5 km
500 à 1000 ft
800 à 1500m
200 à 500 ft
< 800m
< 200 ft
Symboles :   Orages  Brouillard  Fortes neiges  Fortes précipitations  Vent > 20 kt






- Altitude de l'aérodrome : 26 ft


KNCA - New River MCAS /H/ /Mccutcheon Fld/

DERNIER METAR :
  • 210156Z AUTO 02006KT 10SM CLR M01/M08 A3037 RMK AO2 SLP285 T10061083 $

METARs EXPIRÉS :
  • 210056Z AUTO 01006KT 10SM CLR 00/M08 A3036 RMK AO2 SLP284 T00001083 $
  • 202356Z AUTO 02007KT 10SM CLR 01/M08 A3035 RMK AO2 SLP278 T00111083 10050 20011 52019 $

TAF TAF KNCA
Valide du 20 à 21h jusqu'au 21 à 21h UTC


2021/2121 34013G18KT 9999 SKC QNH3028INS
BECMG 2100/2102 01008KT 9999 SCT030 QNH3031INS TM02/2112Z T05/2119Z



MET'MAP, la Météo Aéronautique d'un coup d'oeil ! - Copyright ORBIFLY Décembre 2007 - Disclaimer

ORBIFLY MET'MAP TEAM :

Programmation & Développement : Alexandra Zaïnal
Sur une idée originale de : Baudouin d'Aumeries
Assistance à la programmation : Marc-Olivier Méhu
Soutien technique & logistique : Manuel Goepfert

Contact : metmap@orbifly.com




SOURCES & CREDITS :

   NOAA       Earth
Advisory